createdAt,value
2018-03-29T00:02:51.659Z,98955
2018-03-29T00:07:53.936Z,98961
2018-03-29T00:12:56.229Z,98955
2018-03-29T00:17:58.529Z,98960
2018-03-29T00:23:00.873Z,98975
2018-03-29T00:28:02.442Z,98978
2018-03-29T00:33:03.985Z,98992
2018-03-29T00:38:05.506Z,98998
2018-03-29T00:43:07.796Z,98998
2018-03-29T00:48:10.151Z,99018
2018-03-29T00:53:30.219Z,99027
2018-03-29T00:58:31.786Z,99034
2018-03-29T01:03:33.337Z,99052
2018-03-29T01:08:35.880Z,99044
2018-03-29T01:13:37.437Z,99044
2018-03-29T01:18:38.940Z,99051
2018-03-29T01:23:41.252Z,99065
2018-03-29T01:28:42.788Z,99071
2018-03-29T01:33:45.074Z,99073
2018-03-29T01:38:46.566Z,99082
2018-03-29T01:43:48.076Z,99086
2018-03-29T01:48:49.604Z,99090
2018-03-29T01:53:51.213Z,99088
2018-03-29T01:58:52.725Z,99101
2018-03-29T02:03:55.188Z,99102
2018-03-29T02:08:56.701Z,99108
2018-03-29T02:13:58.225Z,99111
2018-03-29T02:18:59.753Z,99119
2018-03-29T02:24:01.323Z,99118
2018-03-29T02:29:02.881Z,99124
2018-03-29T02:34:04.407Z,99132
2018-03-29T02:39:06.773Z,99123
2018-03-29T02:44:08.264Z,99138
2018-03-29T02:49:10.604Z,99136
2018-03-29T02:54:12.131Z,99131
2018-03-29T02:59:14.457Z,99141
2018-03-29T03:04:15.962Z,99148
2018-03-29T03:09:17.501Z,99147
2018-03-29T03:14:19.093Z,99157
2018-03-29T03:19:20.620Z,99146
2018-03-29T03:24:22.216Z,99152
2018-03-29T03:29:30.940Z,99141
2018-03-29T03:34:32.446Z,99149
2018-03-29T03:39:34.718Z,99149
2018-03-29T03:44:36.319Z,99145
2018-03-29T03:49:38.577Z,99178
2018-03-29T03:54:40.115Z,99182
2018-03-29T03:59:41.701Z,99172
2018-03-29T04:04:43.253Z,99176
2018-03-29T04:09:44.785Z,99183
2018-03-29T04:14:59.564Z,99183
2018-03-29T04:20:01.115Z,99189
2018-03-29T04:25:03.389Z,99191
2018-03-29T04:30:05.663Z,99194
2018-03-29T04:35:07.193Z,99192
2018-03-29T04:40:08.684Z,99203
2018-03-29T04:45:10.210Z,99206
2018-03-29T04:50:11.766Z,99208
2018-03-29T04:55:13.249Z,99216
2018-03-29T05:00:14.803Z,99220
2018-03-29T05:05:16.310Z,99228
2018-03-29T05:10:17.833Z,99233
2018-03-29T05:15:19.345Z,99227
2018-03-29T05:20:20.904Z,99235
2018-03-29T05:25:22.553Z,99233
2018-03-29T05:30:24.111Z,99230
2018-03-29T05:35:25.622Z,99237
2018-03-29T05:40:27.163Z,99237
2018-03-29T05:45:28.913Z,99233
2018-03-29T05:50:31.193Z,99246
2018-03-29T05:55:33.465Z,99242
2018-03-29T06:00:36.649Z,99244
2018-03-29T06:05:38.175Z,99251
2018-03-29T06:10:39.686Z,99265
2018-03-29T06:15:41.207Z,99271
2018-03-29T06:20:42.748Z,99277
2018-03-29T06:25:45.006Z,99279
2018-03-29T06:30:46.529Z,99282
2018-03-29T06:35:48.181Z,99282
2018-03-29T06:40:50.510Z,99273
2018-03-29T06:45:52.133Z,99278
2018-03-29T06:50:54.409Z,99275
2018-03-29T06:55:55.968Z,99277
2018-03-29T07:00:57.540Z,99273
2018-03-29T07:05:59.025Z,99269
2018-03-29T07:11:01.309Z,99263
2018-03-29T07:16:03.562Z,99276
2018-03-29T07:21:05.097Z,99271
2018-03-29T07:26:14.475Z,99269
2018-03-29T07:31:16.035Z,99271
2018-03-29T07:36:17.549Z,99265
2018-03-29T07:41:19.816Z,99266
2018-03-29T07:46:21.337Z,99269
2018-03-29T07:51:23.499Z,99281
2018-03-29T07:56:25.020Z,99284
2018-03-29T08:01:26.584Z,99287
2018-03-29T08:06:28.909Z,99287
2018-03-29T08:11:31.187Z,99289
2018-03-29T08:16:33.442Z,99300
2018-03-29T08:21:34.961Z,99296
2018-03-29T08:26:43.489Z,99310
2018-03-29T08:31:45.006Z,99299
2018-03-29T08:36:46.576Z,99294
2018-03-29T08:41:48.149Z,99306
2018-03-29T08:46:49.657Z,99299
2018-03-29T08:51:51.229Z,99300
2018-03-29T08:56:52.837Z,99304
2018-03-29T09:01:54.383Z,99295
2018-03-29T09:06:55.913Z,99289
2018-03-29T09:11:58.236Z,99300
2018-03-29T09:16:59.750Z,99295
2018-03-29T09:22:01.298Z,99306
2018-03-29T09:27:02.830Z,99307
2018-03-29T09:32:04.436Z,99311
2018-03-29T09:37:06.013Z,99310
2018-03-29T09:42:07.521Z,99305
2018-03-29T09:47:09.288Z,99307
2018-03-29T09:52:11.595Z,99300
2018-03-29T09:57:13.144Z,99309
2018-03-29T10:02:17.872Z,99290
2018-03-29T10:07:24.144Z,99296
2018-03-29T10:12:28.788Z,99289
2018-03-29T10:17:33.776Z,99295
2018-03-29T10:22:39.626Z,99293
2018-03-29T10:27:45.245Z,99295
2018-03-29T10:32:50.113Z,99289
2018-03-29T10:37:54.917Z,99289
2018-03-29T10:43:00.193Z,99279
2018-03-29T10:48:06.807Z,99287
2018-03-29T10:53:10.121Z,99288
2018-03-29T10:58:15.570Z,99279
2018-03-29T11:03:21.032Z,99265
2018-03-29T11:08:26.188Z,99261
2018-03-29T11:13:28.277Z,99267
2018-03-29T11:18:33.007Z,99270
2018-03-29T11:23:38.553Z,99262
2018-03-29T11:28:43.228Z,99278
2018-03-29T11:33:45.690Z,99264
2018-03-29T11:38:47.224Z,99256
2018-03-29T11:43:48.769Z,99257
2018-03-29T11:48:50.344Z,99245
2018-03-29T11:53:51.933Z,99251
2018-03-29T11:58:53.472Z,99235
2018-03-29T12:03:55.077Z,99232
2018-03-29T12:08:56.727Z,99231
2018-03-29T12:13:58.252Z,99220
2018-03-29T12:19:00.501Z,99228
2018-03-29T12:24:02.014Z,99228
2018-03-29T12:29:04.424Z,99233
2018-03-29T12:34:05.966Z,99227
2018-03-29T12:39:08.253Z,99233
2018-03-29T12:44:10.542Z,99230
2018-03-29T12:49:12.825Z,99234
2018-03-29T12:54:15.076Z,99219
2018-03-29T12:59:16.666Z,99207
2018-03-29T13:04:18.980Z,99205
2018-03-29T13:09:20.601Z,99202
2018-03-29T13:14:22.125Z,99201
2018-03-29T13:19:24.294Z,99206
2018-03-29T13:24:25.849Z,99199
2018-03-29T13:29:28.153Z,99202
2018-03-29T13:34:29.688Z,99188
2018-03-29T13:39:31.977Z,99194
2018-03-29T13:44:34.302Z,99195
2018-03-29T13:49:35.900Z,99190
2018-03-29T13:54:37.557Z,99179
2018-03-29T13:59:39.145Z,99185
2018-03-29T14:04:40.714Z,99183
2018-03-29T14:09:42.237Z,99185
2018-03-29T14:14:43.791Z,99179
2018-03-29T14:19:46.118Z,99184
2018-03-29T14:24:47.718Z,99184
2018-03-29T14:29:49.340Z,99186
2018-03-29T14:34:51.576Z,99179
2018-03-29T14:39:53.093Z,99179
2018-03-29T14:44:54.651Z,99180
2018-03-29T14:49:56.223Z,99181
2018-03-29T14:54:57.876Z,99187
2018-03-29T15:00:00.200Z,99186
2018-03-29T15:05:01.724Z,99176
2018-03-29T15:10:04.016Z,99182
2018-03-29T15:15:05.596Z,99182
2018-03-29T15:20:07.142Z,99175
2018-03-29T15:25:09.452Z,99173
2018-03-29T15:30:11.021Z,99172
2018-03-29T15:35:12.549Z,99172
2018-03-29T15:40:14.089Z,99181
2018-03-29T15:45:15.679Z,99184
2018-03-29T15:50:17.237Z,99188
2018-03-29T15:55:18.757Z,99179
2018-03-29T16:00:20.301Z,99187
2018-03-29T16:05:22.659Z,99188
2018-03-29T16:10:24.193Z,99189
2018-03-29T16:15:25.733Z,99176
2018-03-29T16:20:28.256Z,99179
2018-03-29T16:25:29.821Z,99181
2018-03-29T16:30:31.405Z,99175
2018-03-29T16:35:33.027Z,99189
2018-03-29T16:40:35.320Z,99197
2018-03-29T16:45:37.594Z,99187
2018-03-29T16:50:44.764Z,99198
2018-03-29T16:55:54.255Z,99193
2018-03-29T17:01:02.931Z,99203
2018-03-29T17:06:10.890Z,99196
2018-03-29T17:11:23.643Z,99215
2018-03-29T17:16:35.194Z,99227
2018-03-29T17:21:43.658Z,99230
2018-03-29T17:26:53.056Z,99229
2018-03-29T17:31:59.990Z,99236
2018-03-29T17:37:06.717Z,99249
2018-03-29T17:42:11.421Z,99249
2018-03-29T17:47:16.087Z,99251
2018-03-29T17:52:18.664Z,99251
2018-03-29T17:57:21.942Z,99253
2018-03-29T18:02:27.228Z,99271
2018-03-29T18:07:28.860Z,99273
2018-03-29T18:12:30.579Z,99264
2018-03-29T18:17:32.905Z,99278
2018-03-29T18:22:34.595Z,99268
2018-03-29T18:27:36.149Z,99288
2018-03-29T18:32:37.726Z,99284
2018-03-29T18:37:39.303Z,99288
2018-03-29T18:42:41.046Z,99305
2018-03-29T18:47:43.834Z,99289
2018-03-29T18:52:45.410Z,99293
2018-03-29T18:57:47.041Z,99292
2018-03-29T19:02:49.397Z,99310
2018-03-29T19:07:50.948Z,99313
2018-03-29T19:12:52.716Z,99312
2018-03-29T19:17:54.333Z,99313
2018-03-29T19:22:55.917Z,99318
2018-03-29T19:27:58.233Z,99313
2018-03-29T19:32:59.869Z,99317
2018-03-29T19:38:01.695Z,99313
2018-03-29T19:43:03.296Z,99306
2018-03-29T19:48:05.652Z,99299
2018-03-29T19:53:07.279Z,99297
2018-03-29T19:58:16.581Z,99304
2018-03-29T20:03:18.129Z,99307
2018-03-29T20:08:19.659Z,99312
2018-03-29T20:13:22.121Z,99322
2018-03-29T20:18:23.644Z,99326
2018-03-29T20:23:25.318Z,99325
2018-03-29T20:28:26.926Z,99333
2018-03-29T20:33:28.686Z,99341
2018-03-29T20:38:30.376Z,99338
2018-03-29T20:43:32.202Z,99342
2018-03-29T20:48:33.828Z,99333
2018-03-29T20:53:35.436Z,99342
2018-03-29T20:58:37.105Z,99326
2018-03-29T21:03:38.713Z,99341
2018-03-29T21:08:40.251Z,99326
2018-03-29T21:13:42.825Z,99326
2018-03-29T21:18:45.233Z,99328
2018-03-29T21:23:47.122Z,99328
2018-03-29T21:28:48.652Z,99334
2018-03-29T21:33:50.257Z,99326
2018-03-29T21:38:52.160Z,99326
2018-03-29T21:43:53.675Z,99328
2018-03-29T21:48:55.221Z,99330
2018-03-29T21:53:56.796Z,99340
2018-03-29T21:58:59.106Z,99340
2018-03-29T22:04:00.827Z,99339
2018-03-29T22:09:02.477Z,99343
2018-03-29T22:14:04.038Z,99346
2018-03-29T22:19:06.012Z,99354
2018-03-29T22:24:07.595Z,99346
2018-03-29T22:29:09.306Z,99348
2018-03-29T22:34:10.922Z,99348
2018-03-29T22:39:12.489Z,99348
2018-03-29T22:44:14.107Z,99354
2018-03-29T22:49:15.675Z,99353
2018-03-29T22:54:17.246Z,99352
2018-03-29T22:59:19.542Z,99342
2018-03-29T23:04:22.044Z,99350
2018-03-29T23:09:23.606Z,99345
2018-03-29T23:14:25.893Z,99350
2018-03-29T23:19:27.640Z,99343
2018-03-29T23:24:29.163Z,99342
2018-03-29T23:29:30.685Z,99328
2018-03-29T23:34:32.980Z,99348
2018-03-29T23:39:35.220Z,99342
2018-03-29T23:44:36.752Z,99332
2018-03-29T23:49:38.286Z,99326
2018-03-29T23:54:40.532Z,99332
2018-03-29T23:59:42.035Z,99330
